sensor_id;sensor_type;location;lat;lon;timestamp;P1;P2;P0
67892;PMS7003;54688;52.376;16.744;2023-10-31T00:00:29;42;33;
67892;PMS7003;54688;52.376;16.744;2023-10-31T00:04:01;41;33;
67892;PMS7003;54688;52.376;16.744;2023-10-31T00:07:04;40;34;
67892;PMS7003;54688;52.376;16.744;2023-10-31T00:10:07;43;35;
67892;PMS7003;54688;52.376;16.744;2023-10-31T00:13:10;46;36;
67892;PMS7003;54688;52.376;16.744;2023-10-31T00:16:12;46;38;
67892;PMS7003;54688;52.376;16.744;2023-10-31T00:19:15;43;36;
67892;PMS7003;54688;52.376;16.744;2023-10-31T00:22:17;42;36;
67892;PMS7003;54688;52.376;16.744;2023-10-31T00:25:19;45;36;
67892;PMS7003;54688;52.376;16.744;2023-10-31T00:28:22;42;36;
67892;PMS7003;54688;52.376;16.744;2023-10-31T00:31:24;37;34;
67892;PMS7003;54688;52.376;16.744;2023-10-31T00:34:26;43;35;
67892;PMS7003;54688;52.376;16.744;2023-10-31T00:37:29;49;38;
67892;PMS7003;54688;52.376;16.744;2023-10-31T00:40:31;49;39;
67892;PMS7003;54688;52.376;16.744;2023-10-31T00:43:34;47;38;
67892;PMS7003;54688;52.376;16.744;2023-10-31T00:46:36;44;38;
67892;PMS7003;54688;52.376;16.744;2023-10-31T00:49:38;46;37;
67892;PMS7003;54688;52.376;16.744;2023-10-31T00:52:40;42;35;
67892;PMS7003;54688;52.376;16.744;2023-10-31T00:55:43;42;36;
67892;PMS7003;54688;52.376;16.744;2023-10-31T00:58:46;42;34;
67892;PMS7003;54688;52.376;16.744;2023-10-31T01:01:49;40;34;
67892;PMS7003;54688;52.376;16.744;2023-10-31T01:04:52;35;33;
67892;PMS7003;54688;52.376;16.744;2023-10-31T01:07:54;35;32;
67892;PMS7003;54688;52.376;16.744;2023-10-31T01:10:57;38;32;
67892;PMS7003;54688;52.376;16.744;2023-10-31T01:14:00;39;33;
67892;PMS7003;54688;52.376;16.744;2023-10-31T01:17:03;45;35;
67892;PMS7003;54688;52.376;16.744;2023-10-31T01:20:07;34;30;
67892;PMS7003;54688;52.376;16.744;2023-10-31T01:23:10;36;33;
67892;PMS7003;54688;52.376;16.744;2023-10-31T01:26:12;36;31;
67892;PMS7003;54688;52.376;16.744;2023-10-31T01:29:14;36;32;
67892;PMS7003;54688;52.376;16.744;2023-10-31T01:32:16;36;33;
67892;PMS7003;54688;52.376;16.744;2023-10-31T01:35:18;38;32;
67892;PMS7003;54688;52.376;16.744;2023-10-31T01:38:21;38;32;
67892;PMS7003;54688;52.376;16.744;2023-10-31T01:41:23;40;34;
67892;PMS7003;54688;52.376;16.744;2023-10-31T01:44:26;42;33;
67892;PMS7003;54688;52.376;16.744;2023-10-31T01:47:29;37;31;
67892;PMS7003;54688;52.376;16.744;2023-10-31T01:50:31;37;31;
67892;PMS7003;54688;52.376;16.744;2023-10-31T01:53:34;39;31;
67892;PMS7003;54688;52.376;16.744;2023-10-31T01:56:37;37;33;
67892;PMS7003;54688;52.376;16.744;2023-10-31T01:59:39;33;30;
67892;PMS7003;54688;52.376;16.744;2023-10-31T02:02:41;33;31;
67892;PMS7003;54688;52.376;16.744;2023-10-31T02:05:45;35;30;
67892;PMS7003;54688;52.376;16.744;2023-10-31T02:08:48;31;27;
67892;PMS7003;54688;52.376;16.744;2023-10-31T02:11:50;40;33;
67892;PMS7003;54688;52.376;16.744;2023-10-31T02:14:52;41;33;
67892;PMS7003;54688;52.376;16.744;2023-10-31T02:17:55;37;30;
67892;PMS7003;54688;52.376;16.744;2023-10-31T02:20:57;31;28;
67892;PMS7003;54688;52.376;16.744;2023-10-31T02:24:01;33;31;
67892;PMS7003;54688;52.376;16.744;2023-10-31T02:27:03;37;30;
67892;PMS7003;54688;52.376;16.744;2023-10-31T02:30:07;31;30;
67892;PMS7003;54688;52.376;16.744;2023-10-31T02:33:09;30;29;
67892;PMS7003;54688;52.376;16.744;2023-10-31T02:36:11;29;28;
67892;PMS7003;54688;52.376;16.744;2023-10-31T02:39:13;38;31;
67892;PMS7003;54688;52.376;16.744;2023-10-31T02:42:16;31;27;
67892;PMS7003;54688;52.376;16.744;2023-10-31T02:45:18;27;25;
67892;PMS7003;54688;52.376;16.744;2023-10-31T02:48:20;33;30;
67892;PMS7003;54688;52.376;16.744;2023-10-31T02:51:22;29;27;
67892;PMS7003;54688;52.376;16.744;2023-10-31T02:54:25;27;25;
67892;PMS7003;54688;52.376;16.744;2023-10-31T02:57:27;33;29;
67892;PMS7003;54688;52.376;16.744;2023-10-31T03:00:29;32;30;
67892;PMS7003;54688;52.376;16.744;2023-10-31T03:03:31;32;30;
67892;PMS7003;54688;52.376;16.744;2023-10-31T03:06:34;27;25;
67892;PMS7003;54688;52.376;16.744;2023-10-31T03:09:36;28;24;
67892;PMS7003;54688;52.376;16.744;2023-10-31T03:12:39;31;28;
67892;PMS7003;54688;52.376;16.744;2023-10-31T03:15:41;31;28;
67892;PMS7003;54688;52.376;16.744;2023-10-31T03:18:43;31;26;
67892;PMS7003;54688;52.376;16.744;2023-10-31T03:21:46;27;25;
67892;PMS7003;54688;52.376;16.744;2023-10-31T03:24:48;26;25;
67892;PMS7003;54688;52.376;16.744;2023-10-31T03:27:50;21;20;
67892;PMS7003;54688;52.376;16.744;2023-10-31T03:30:53;27;24;
67892;PMS7003;54688;52.376;16.744;2023-10-31T03:33:55;26;21;
67892;PMS7003;54688;52.376;16.744;2023-10-31T03:36:58;23;20;
67892;PMS7003;54688;52.376;16.744;2023-10-31T03:40:00;22;19;
67892;PMS7003;54688;52.376;16.744;2023-10-31T03:43:02;24;21;
67892;PMS7003;54688;52.376;16.744;2023-10-31T03:46:05;20;19;
67892;PMS7003;54688;52.376;16.744;2023-10-31T03:49:07;23;22;
67892;PMS7003;54688;52.376;16.744;2023-10-31T03:52:09;30;26;
67892;PMS7003;54688;52.376;16.744;2023-10-31T03:55:11;23;19;
67892;PMS7003;54688;52.376;16.744;2023-10-31T03:58:14;26;21;
67892;PMS7003;54688;52.376;16.744;2023-10-31T04:01:15;23;22;
67892;PMS7003;54688;52.376;16.744;2023-10-31T04:04:18;23;20;
67892;PMS7003;54688;52.376;16.744;2023-10-31T04:07:20;22;21;
67892;PMS7003;54688;52.376;16.744;2023-10-31T04:10:22;20;20;
67892;PMS7003;54688;52.376;16.744;2023-10-31T04:13:24;20;20;
67892;PMS7003;54688;52.376;16.744;2023-10-31T04:16:27;20;19;
67892;PMS7003;54688;52.376;16.744;2023-10-31T04:19:30;27;26;
67892;PMS7003;54688;52.376;16.744;2023-10-31T04:22:32;18;18;
67892;PMS7003;54688;52.376;16.744;2023-10-31T04:25:35;19;17;
67892;PMS7003;54688;52.376;16.744;2023-10-31T04:28:37;17;17;
67892;PMS7003;54688;52.376;16.744;2023-10-31T04:31:39;17;15;
67892;PMS7003;54688;52.376;16.744;2023-10-31T04:34:42;24;23;
67892;PMS7003;54688;52.376;16.744;2023-10-31T04:37:44;21;17;
67892;PMS7003;54688;52.376;16.744;2023-10-31T04:40:46;21;21;
67892;PMS7003;54688;52.376;16.744;2023-10-31T04:43:49;19;19;
67892;PMS7003;54688;52.376;16.744;2023-10-31T04:46:52;23;18;
67892;PMS7003;54688;52.376;16.744;2023-10-31T04:49:54;20;17;
67892;PMS7003;54688;52.376;16.744;2023-10-31T04:52:56;18;17;
67892;PMS7003;54688;52.376;16.744;2023-10-31T04:55:58;20;19;
67892;PMS7003;54688;52.376;16.744;2023-10-31T04:59:01;22;19;
67892;PMS7003;54688;52.376;16.744;2023-10-31T05:02:03;22;19;
67892;PMS7003;54688;52.376;16.744;2023-10-31T05:05:06;15;15;
67892;PMS7003;54688;52.376;16.744;2023-10-31T05:08:08;24;18;
67892;PMS7003;54688;52.376;16.744;2023-10-31T05:11:10;23;21;
67892;PMS7003;54688;52.376;16.744;2023-10-31T05:14:12;25;19;
67892;PMS7003;54688;52.376;16.744;2023-10-31T05:17:14;20;20;
67892;PMS7003;54688;52.376;16.744;2023-10-31T05:20:17;19;18;
67892;PMS7003;54688;52.376;16.744;2023-10-31T05:23:19;18;16;
67892;PMS7003;54688;52.376;16.744;2023-10-31T05:26:21;20;20;
67892;PMS7003;54688;52.376;16.744;2023-10-31T05:29:23;19;18;
67892;PMS7003;54688;52.376;16.744;2023-10-31T05:32:25;25;25;
67892;PMS7003;54688;52.376;16.744;2023-10-31T05:35:28;30;28;
67892;PMS7003;54688;52.376;16.744;2023-10-31T05:38:30;23;23;
67892;PMS7003;54688;52.376;16.744;2023-10-31T05:41:34;22;20;
67892;PMS7003;54688;52.376;16.744;2023-10-31T05:44:36;39;29;
67892;PMS7003;54688;52.376;16.744;2023-10-31T05:47:38;26;26;
67892;PMS7003;54688;52.376;16.744;2023-10-31T05:50:41;31;27;
67892;PMS7003;54688;52.376;16.744;2023-10-31T05:53:46;28;26;
67892;PMS7003;54688;52.376;16.744;2023-10-31T05:56:48;22;22;
67892;PMS7003;54688;52.376;16.744;2023-10-31T05:59:50;28;26;
67892;PMS7003;54688;52.376;16.744;2023-10-31T06:02:52;31;30;
67892;PMS7003;54688;52.376;16.744;2023-10-31T06:05:54;24;24;
67892;PMS7003;54688;52.376;16.744;2023-10-31T06:08:56;30;27;
67892;PMS7003;54688;52.376;16.744;2023-10-31T06:11:59;35;32;
67892;PMS7003;54688;52.376;16.744;2023-10-31T06:15:01;29;28;
67892;PMS7003;54688;52.376;16.744;2023-10-31T06:18:04;41;35;
67892;PMS7003;54688;52.376;16.744;2023-10-31T06:21:08;35;26;
67892;PMS7003;54688;52.376;16.744;2023-10-31T06:24:10;26;26;
67892;PMS7003;54688;52.376;16.744;2023-10-31T06:27:13;24;21;
67892;PMS7003;54688;52.376;16.744;2023-10-31T06:30:16;21;20;
67892;PMS7003;54688;52.376;16.744;2023-10-31T06:33:18;22;19;
67892;PMS7003;54688;52.376;16.744;2023-10-31T06:36:20;26;22;
67892;PMS7003;54688;52.376;16.744;2023-10-31T06:39:23;17;17;
67892;PMS7003;54688;52.376;16.744;2023-10-31T06:42:25;27;25;
67892;PMS7003;54688;52.376;16.744;2023-10-31T06:45:27;21;18;
67892;PMS7003;54688;52.376;16.744;2023-10-31T06:48:29;28;23;
67892;PMS7003;54688;52.376;16.744;2023-10-31T06:51:31;23;23;
67892;PMS7003;54688;52.376;16.744;2023-10-31T06:54:34;21;19;
67892;PMS7003;54688;52.376;16.744;2023-10-31T06:57:36;21;21;
67892;PMS7003;54688;52.376;16.744;2023-10-31T07:00:38;21;19;
67892;PMS7003;54688;52.376;16.744;2023-10-31T07:03:40;22;19;
67892;PMS7003;54688;52.376;16.744;2023-10-31T07:06:43;25;23;
67892;PMS7003;54688;52.376;16.744;2023-10-31T07:09:45;25;22;
67892;PMS7003;54688;52.376;16.744;2023-10-31T07:12:47;25;23;
67892;PMS7003;54688;52.376;16.744;2023-10-31T07:15:49;22;21;
67892;PMS7003;54688;52.376;16.744;2023-10-31T07:18:52;25;22;
67892;PMS7003;54688;52.376;16.744;2023-10-31T07:21:54;22;20;
67892;PMS7003;54688;52.376;16.744;2023-10-31T07:24:56;23;19;
67892;PMS7003;54688;52.376;16.744;2023-10-31T07:27:58;18;17;
67892;PMS7003;54688;52.376;16.744;2023-10-31T07:31:00;24;24;
67892;PMS7003;54688;52.376;16.744;2023-10-31T07:34:03;17;16;
67892;PMS7003;54688;52.376;16.744;2023-10-31T07:37:06;22;21;
67892;PMS7003;54688;52.376;16.744;2023-10-31T07:40:09;18;18;
67892;PMS7003;54688;52.376;16.744;2023-10-31T07:43:12;21;18;
67892;PMS7003;54688;52.376;16.744;2023-10-31T07:46:14;17;17;
67892;PMS7003;54688;52.376;16.744;2023-10-31T07:49:16;24;23;
67892;PMS7003;54688;52.376;16.744;2023-10-31T07:52:18;20;16;
67892;PMS7003;54688;52.376;16.744;2023-10-31T07:55:20;24;20;
67892;PMS7003;54688;52.376;16.744;2023-10-31T07:58:22;19;17;
67892;PMS7003;54688;52.376;16.744;2023-10-31T08:01:24;27;27;
67892;PMS7003;54688;52.376;16.744;2023-10-31T08:04:27;19;19;
67892;PMS7003;54688;52.376;16.744;2023-10-31T08:07:29;20;20;
67892;PMS7003;54688;52.376;16.744;2023-10-31T08:10:31;16;16;
67892;PMS7003;54688;52.376;16.744;2023-10-31T08:13:41;23;20;
67892;PMS7003;54688;52.376;16.744;2023-10-31T08:16:44;15;14;
67892;PMS7003;54688;52.376;16.744;2023-10-31T08:19:46;17;16;
67892;PMS7003;54688;52.376;16.744;2023-10-31T08:22:49;17;17;
67892;PMS7003;54688;52.376;16.744;2023-10-31T08:25:51;14;14;
67892;PMS7003;54688;52.376;16.744;2023-10-31T08:28:54;16;16;
67892;PMS7003;54688;52.376;16.744;2023-10-31T08:31:57;19;17;
67892;PMS7003;54688;52.376;16.744;2023-10-31T08:34:59;21;20;
67892;PMS7003;54688;52.376;16.744;2023-10-31T08:38:02;20;18;
67892;PMS7003;54688;52.376;16.744;2023-10-31T08:41:05;21;18;
67892;PMS7003;54688;52.376;16.744;2023-10-31T08:44:07;16;14;
67892;PMS7003;54688;52.376;16.744;2023-10-31T08:47:09;21;16;
67892;PMS7003;54688;52.376;16.744;2023-10-31T08:50:12;16;15;
67892;PMS7003;54688;52.376;16.744;2023-10-31T08:53:14;12;12;
67892;PMS7003;54688;52.376;16.744;2023-10-31T08:56:16;14;10;
67892;PMS7003;54688;52.376;16.744;2023-10-31T08:59:18;11;11;
67892;PMS7003;54688;52.376;16.744;2023-10-31T09:02:21;9;9;
67892;PMS7003;54688;52.376;16.744;2023-10-31T09:05:23;10;10;
67892;PMS7003;54688;52.376;16.744;2023-10-31T09:08:25;9;9;
67892;PMS7003;54688;52.376;16.744;2023-10-31T09:11:28;11;8;
67892;PMS7003;54688;52.376;16.744;2023-10-31T09:14:31;5;5;
67892;PMS7003;54688;52.376;16.744;2023-10-31T09:17:33;11;6;
67892;PMS7003;54688;52.376;16.744;2023-10-31T09:20:36;8;8;
67892;PMS7003;54688;52.376;16.744;2023-10-31T09:23:38;7;6;
67892;PMS7003;54688;52.376;16.744;2023-10-31T09:26:41;9;9;
67892;PMS7003;54688;52.376;16.744;2023-10-31T09:29:43;5;5;
67892;PMS7003;54688;52.376;16.744;2023-10-31T09:32:46;5;5;
67892;PMS7003;54688;52.376;16.744;2023-10-31T09:35:48;7;7;
67892;PMS7003;54688;52.376;16.744;2023-10-31T09:38:51;4;4;
67892;PMS7003;54688;52.376;16.744;2023-10-31T09:41:53;5;5;
67892;PMS7003;54688;52.376;16.744;2023-10-31T09:44:56;6;5;
67892;PMS7003;54688;52.376;16.744;2023-10-31T09:48:00;5;5;
67892;PMS7003;54688;52.376;16.744;2023-10-31T09:51:04;6;5;
67892;PMS7003;54688;52.376;16.744;2023-10-31T09:54:07;6;6;
67892;PMS7003;54688;52.376;16.744;2023-10-31T09:57:10;7;5;
67892;PMS7003;54688;52.376;16.744;2023-10-31T10:00:13;5;5;
67892;PMS7003;54688;52.376;16.744;2023-10-31T10:03:16;6;6;
67892;PMS7003;54688;52.376;16.744;2023-10-31T10:06:18;6;6;
67892;PMS7003;54688;52.376;16.744;2023-10-31T10:09:21;6;6;
67892;PMS7003;54688;52.376;16.744;2023-10-31T10:12:24;8;8;
67892;PMS7003;54688;52.376;16.744;2023-10-31T10:15:26;6;6;
67892;PMS7003;54688;52.376;16.744;2023-10-31T10:18:30;8;7;
67892;PMS7003;54688;52.376;16.744;2023-10-31T10:21:46;10;9;
67892;PMS7003;54688;52.376;16.744;2023-10-31T10:24:48;8;6;
67892;PMS7003;54688;52.376;16.744;2023-10-31T10:27:50;7;6;
67892;PMS7003;54688;52.376;16.744;2023-10-31T10:30:53;6;6;
67892;PMS7003;54688;52.376;16.744;2023-10-31T10:33:56;7;7;
67892;PMS7003;54688;52.376;16.744;2023-10-31T10:36:59;6;6;
67892;PMS7003;54688;52.376;16.744;2023-10-31T10:40:02;5;5;
67892;PMS7003;54688;52.376;16.744;2023-10-31T10:43:05;10;8;
67892;PMS7003;54688;52.376;16.744;2023-10-31T10:46:09;7;7;
67892;PMS7003;54688;52.376;16.744;2023-10-31T10:49:14;9;9;
67892;PMS7003;54688;52.376;16.744;2023-10-31T10:52:22;19;19;
67892;PMS7003;54688;52.376;16.744;2023-10-31T10:55:26;5;5;
67892;PMS7003;54688;52.376;16.744;2023-10-31T10:58:34;6;6;
67892;PMS7003;54688;52.376;16.744;2023-10-31T11:01:40;8;6;
67892;PMS7003;54688;52.376;16.744;2023-10-31T11:04:43;6;6;
67892;PMS7003;54688;52.376;16.744;2023-10-31T11:07:46;8;6;
67892;PMS7003;54688;52.376;16.744;2023-10-31T11:10:50;8;8;
67892;PMS7003;54688;52.376;16.744;2023-10-31T11:13:52;10;6;
67892;PMS7003;54688;52.376;16.744;2023-10-31T11:16:57;5;3;
67892;PMS7003;54688;52.376;16.744;2023-10-31T11:20:00;3;3;
67892;PMS7003;54688;52.376;16.744;2023-10-31T11:23:03;5;5;
67892;PMS7003;54688;52.376;16.744;2023-10-31T11:26:06;2;2;
67892;PMS7003;54688;52.376;16.744;2023-10-31T11:29:10;3;2;
67892;PMS7003;54688;52.376;16.744;2023-10-31T11:32:14;0;0;
67892;PMS7003;54688;52.376;16.744;2023-10-31T11:35:16;1;1;
67892;PMS7003;54688;52.376;16.744;2023-10-31T11:38:31;1;1;
67892;PMS7003;54688;52.376;16.744;2023-10-31T11:41:33;1;1;
67892;PMS7003;54688;52.376;16.744;2023-10-31T11:44:54;0;0;
67892;PMS7003;54688;52.376;16.744;2023-10-31T11:47:57;0;0;
67892;PMS7003;54688;52.376;16.744;2023-10-31T11:51:00;1;1;
67892;PMS7003;54688;52.376;16.744;2023-10-31T11:54:04;1;1;
67892;PMS7003;54688;52.376;16.744;2023-10-31T11:57:06;1;1;
67892;PMS7003;54688;52.376;16.744;2023-10-31T12:00:20;0;0;
67892;PMS7003;54688;52.376;16.744;2023-10-31T12:03:22;1;1;
67892;PMS7003;54688;52.376;16.744;2023-10-31T12:06:25;1;1;
67892;PMS7003;54688;52.376;16.744;2023-10-31T12:09:27;1;1;
67892;PMS7003;54688;52.376;16.744;2023-10-31T12:12:30;1;1;
67892;PMS7003;54688;52.376;16.744;2023-10-31T12:15:32;2;1;
67892;PMS7003;54688;52.376;16.744;2023-10-31T12:18:35;2;2;
67892;PMS7003;54688;52.376;16.744;2023-10-31T12:21:39;2;2;
67892;PMS7003;54688;52.376;16.744;2023-10-31T12:24:42;2;2;
67892;PMS7003;54688;52.376;16.744;2023-10-31T12:27:46;2;2;
67892;PMS7003;54688;52.376;16.744;2023-10-31T12:30:50;1;1;
67892;PMS7003;54688;52.376;16.744;2023-10-31T12:33:53;2;2;
67892;PMS7003;54688;52.376;16.744;2023-10-31T12:36:55;2;2;
67892;PMS7003;54688;52.376;16.744;2023-10-31T12:39:58;1;1;
67892;PMS7003;54688;52.376;16.744;2023-10-31T12:43:01;5;2;
67892;PMS7003;54688;52.376;16.744;2023-10-31T12:46:24;2;2;
67892;PMS7003;54688;52.376;16.744;2023-10-31T12:49:26;1;1;
67892;PMS7003;54688;52.376;16.744;2023-10-31T12:52:45;2;2;
67892;PMS7003;54688;52.376;16.744;2023-10-31T12:55:47;2;2;
67892;PMS7003;54688;52.376;16.744;2023-10-31T12:58:56;2;2;
67892;PMS7003;54688;52.376;16.744;2023-10-31T13:01:59;4;1;
67892;PMS7003;54688;52.376;16.744;2023-10-31T13:05:08;2;2;
67892;PMS7003;54688;52.376;16.744;2023-10-31T13:08:13;2;2;
67892;PMS7003;54688;52.376;16.744;2023-10-31T13:11:15;2;1;
67892;PMS7003;54688;52.376;16.744;2023-10-31T13:14:18;2;2;
67892;PMS7003;54688;52.376;16.744;2023-10-31T13:17:21;0;0;
67892;PMS7003;54688;52.376;16.744;2023-10-31T13:20:23;3;3;
67892;PMS7003;54688;52.376;16.744;2023-10-31T13:23:27;2;2;
67892;PMS7003;54688;52.376;16.744;2023-10-31T13:26:30;1;1;
67892;PMS7003;54688;52.376;16.744;2023-10-31T13:29:33;3;3;
67892;PMS7003;54688;52.376;16.744;2023-10-31T13:32:37;0;0;
67892;PMS7003;54688;52.376;16.744;2023-10-31T13:35:40;2;2;
67892;PMS7003;54688;52.376;16.744;2023-10-31T13:38:42;4;3;
67892;PMS7003;54688;52.376;16.744;2023-10-31T13:41:45;3;3;
67892;PMS7003;54688;52.376;16.744;2023-10-31T13:44:47;3;3;
67892;PMS7003;54688;52.376;16.744;2023-10-31T13:47:49;2;2;
67892;PMS7003;54688;52.376;16.744;2023-10-31T13:50:52;3;3;
67892;PMS7003;54688;52.376;16.744;2023-10-31T13:53:55;3;2;
67892;PMS7003;54688;52.376;16.744;2023-10-31T13:56:57;4;3;
67892;PMS7003;54688;52.376;16.744;2023-10-31T14:00:00;2;2;
67892;PMS7003;54688;52.376;16.744;2023-10-31T14:03:03;3;3;
67892;PMS7003;54688;52.376;16.744;2023-10-31T14:06:05;4;4;
67892;PMS7003;54688;52.376;16.744;2023-10-31T14:09:10;4;2;
67892;PMS7003;54688;52.376;16.744;2023-10-31T14:12:12;4;3;
67892;PMS7003;54688;52.376;16.744;2023-10-31T14:15:14;2;2;
67892;PMS7003;54688;52.376;16.744;2023-10-31T14:18:17;3;3;
67892;PMS7003;54688;52.376;16.744;2023-10-31T14:21:19;7;4;
67892;PMS7003;54688;52.376;16.744;2023-10-31T14:24:22;5;5;
67892;PMS7003;54688;52.376;16.744;2023-10-31T14:27:24;4;4;
67892;PMS7003;54688;52.376;16.744;2023-10-31T14:30:27;8;5;
67892;PMS7003;54688;52.376;16.744;2023-10-31T14:33:30;5;5;
67892;PMS7003;54688;52.376;16.744;2023-10-31T14:36:32;2;2;
67892;PMS7003;54688;52.376;16.744;2023-10-31T14:39:35;4;4;
67892;PMS7003;54688;52.376;16.744;2023-10-31T14:42:37;6;4;
67892;PMS7003;54688;52.376;16.744;2023-10-31T14:45:40;19;15;
67892;PMS7003;54688;52.376;16.744;2023-10-31T14:51:42;5;4;
67892;PMS7003;54688;52.376;16.744;2023-10-31T14:54:44;4;4;
67892;PMS7003;54688;52.376;16.744;2023-10-31T14:57:47;6;6;
67892;PMS7003;54688;52.376;16.744;2023-10-31T15:00:49;6;4;
67892;PMS7003;54688;52.376;16.744;2023-10-31T15:03:53;6;4;
67892;PMS7003;54688;52.376;16.744;2023-10-31T15:06:55;7;6;
67892;PMS7003;54688;52.376;16.744;2023-10-31T15:09:58;6;6;
67892;PMS7003;54688;52.376;16.744;2023-10-31T15:13:00;6;4;
67892;PMS7003;54688;52.376;16.744;2023-10-31T15:16:04;9;5;
67892;PMS7003;54688;52.376;16.744;2023-10-31T15:19:06;5;3;
67892;PMS7003;54688;52.376;16.744;2023-10-31T15:22:09;5;5;
67892;PMS7003;54688;52.376;16.744;2023-10-31T15:25:12;6;6;
67892;PMS7003;54688;52.376;16.744;2023-10-31T15:28:14;7;6;
67892;PMS7003;54688;52.376;16.744;2023-10-31T15:31:16;9;7;
67892;PMS7003;54688;52.376;16.744;2023-10-31T15:34:19;7;6;
67892;PMS7003;54688;52.376;16.744;2023-10-31T15:37:21;4;4;
67892;PMS7003;54688;52.376;16.744;2023-10-31T15:40:24;5;3;
67892;PMS7003;54688;52.376;16.744;2023-10-31T15:43:26;5;3;
67892;PMS7003;54688;52.376;16.744;2023-10-31T15:46:29;3;3;
67892;PMS7003;54688;52.376;16.744;2023-10-31T15:49:31;3;3;
67892;PMS7003;54688;52.376;16.744;2023-10-31T15:55:33;5;3;
67892;PMS7003;54688;52.376;16.744;2023-10-31T15:58:36;6;4;
67892;PMS7003;54688;52.376;16.744;2023-10-31T16:01:38;6;6;
67892;PMS7003;54688;52.376;16.744;2023-10-31T16:04:41;13;13;
67892;PMS7003;54688;52.376;16.744;2023-10-31T16:07:43;23;19;
67892;PMS7003;54688;52.376;16.744;2023-10-31T16:10:46;13;13;
67892;PMS7003;54688;52.376;16.744;2023-10-31T16:13:48;26;18;
67892;PMS7003;54688;52.376;16.744;2023-10-31T16:16:51;27;23;
67892;PMS7003;54688;52.376;16.744;2023-10-31T16:19:52;12;10;
67892;PMS7003;54688;52.376;16.744;2023-10-31T16:22:55;10;9;
67892;PMS7003;54688;52.376;16.744;2023-10-31T16:25:58;10;8;
67892;PMS7003;54688;52.376;16.744;2023-10-31T16:29:00;10;7;
67892;PMS7003;54688;52.376;16.744;2023-10-31T16:32:03;9;7;
67892;PMS7003;54688;52.376;16.744;2023-10-31T16:35:06;5;3;
67892;PMS7003;54688;52.376;16.744;2023-10-31T16:38:09;3;1;
67892;PMS7003;54688;52.376;16.744;2023-10-31T16:41:13;3;3;
67892;PMS7003;54688;52.376;16.744;2023-10-31T16:44:15;9;9;
67892;PMS7003;54688;52.376;16.744;2023-10-31T16:47:18;8;7;
67892;PMS7003;54688;52.376;16.744;2023-10-31T16:50:21;5;4;
67892;PMS7003;54688;52.376;16.744;2023-10-31T16:53:23;4;1;
67892;PMS7003;54688;52.376;16.744;2023-10-31T16:56:26;2;2;
67892;PMS7003;54688;52.376;16.744;2023-10-31T16:59:28;3;1;
67892;PMS7003;54688;52.376;16.744;2023-10-31T17:02:31;2;2;
67892;PMS7003;54688;52.376;16.744;2023-10-31T17:05:34;3;2;
67892;PMS7003;54688;52.376;16.744;2023-10-31T17:08:36;1;1;
67892;PMS7003;54688;52.376;16.744;2023-10-31T17:11:39;3;2;
67892;PMS7003;54688;52.376;16.744;2023-10-31T17:14:41;1;1;
67892;PMS7003;54688;52.376;16.744;2023-10-31T17:17:44;1;1;
67892;PMS7003;54688;52.376;16.744;2023-10-31T17:20:47;0;0;
67892;PMS7003;54688;52.376;16.744;2023-10-31T17:23:49;6;5;
67892;PMS7003;54688;52.376;16.744;2023-10-31T17:26:53;5;5;
67892;PMS7003;54688;52.376;16.744;2023-10-31T17:29:55;2;2;
67892;PMS7003;54688;52.376;16.744;2023-10-31T17:32:58;4;3;
67892;PMS7003;54688;52.376;16.744;2023-10-31T17:36:00;1;1;
67892;PMS7003;54688;52.376;16.744;2023-10-31T17:39:03;3;3;
67892;PMS7003;54688;52.376;16.744;2023-10-31T17:42:05;4;1;
67892;PMS7003;54688;52.376;16.744;2023-10-31T17:45:09;1;1;
67892;PMS7003;54688;52.376;16.744;2023-10-31T17:48:11;2;2;
67892;PMS7003;54688;52.376;16.744;2023-10-31T17:51:13;4;3;
67892;PMS7003;54688;52.376;16.744;2023-10-31T17:54:16;5;2;
67892;PMS7003;54688;52.376;16.744;2023-10-31T17:57:19;3;2;
67892;PMS7003;54688;52.376;16.744;2023-10-31T18:00:21;2;1;
67892;PMS7003;54688;52.376;16.744;2023-10-31T18:03:23;4;4;
67892;PMS7003;54688;52.376;16.744;2023-10-31T18:06:26;2;2;
67892;PMS7003;54688;52.376;16.744;2023-10-31T18:09:29;2;2;
67892;PMS7003;54688;52.376;16.744;2023-10-31T18:12:31;8;3;
67892;PMS7003;54688;52.376;16.744;2023-10-31T18:15:34;3;3;
67892;PMS7003;54688;52.376;16.744;2023-10-31T18:18:37;3;3;
67892;PMS7003;54688;52.376;16.744;2023-10-31T18:21:39;5;4;
67892;PMS7003;54688;52.376;16.744;2023-10-31T18:24:42;8;4;
67892;PMS7003;54688;52.376;16.744;2023-10-31T18:27:44;6;5;
67892;PMS7003;54688;52.376;16.744;2023-10-31T18:30:49;4;3;
67892;PMS7003;54688;52.376;16.744;2023-10-31T18:33:51;2;2;
67892;PMS7003;54688;52.376;16.744;2023-10-31T18:36:55;2;2;
67892;PMS7003;54688;52.376;16.744;2023-10-31T18:39:58;1;1;
67892;PMS7003;54688;52.376;16.744;2023-10-31T18:43:00;0;0;
67892;PMS7003;54688;52.376;16.744;2023-10-31T18:46:03;1;1;
67892;PMS7003;54688;52.376;16.744;2023-10-31T18:49:05;1;1;
67892;PMS7003;54688;52.376;16.744;2023-10-31T18:52:08;1;1;
67892;PMS7003;54688;52.376;16.744;2023-10-31T18:55:10;1;1;
67892;PMS7003;54688;52.376;16.744;2023-10-31T18:58:13;1;1;
67892;PMS7003;54688;52.376;16.744;2023-10-31T19:01:16;1;1;
67892;PMS7003;54688;52.376;16.744;2023-10-31T19:04:19;0;0;
67892;PMS7003;54688;52.376;16.744;2023-10-31T19:07:21;1;1;
67892;PMS7003;54688;52.376;16.744;2023-10-31T19:10:24;0;0;
67892;PMS7003;54688;52.376;16.744;2023-10-31T19:13:27;1;1;
67892;PMS7003;54688;52.376;16.744;2023-10-31T19:16:29;1;1;
67892;PMS7003;54688;52.376;16.744;2023-10-31T19:19:32;2;2;
67892;PMS7003;54688;52.376;16.744;2023-10-31T19:22:35;3;2;
67892;PMS7003;54688;52.376;16.744;2023-10-31T19:25:37;3;1;
67892;PMS7003;54688;52.376;16.744;2023-10-31T19:28:40;0;0;
67892;PMS7003;54688;52.376;16.744;2023-10-31T19:31:42;1;1;
67892;PMS7003;54688;52.376;16.744;2023-10-31T19:34:45;2;1;
67892;PMS7003;54688;52.376;16.744;2023-10-31T19:37:47;2;1;
67892;PMS7003;54688;52.376;16.744;2023-10-31T19:40:50;0;0;
67892;PMS7003;54688;52.376;16.744;2023-10-31T19:43:52;1;1;
67892;PMS7003;54688;52.376;16.744;2023-10-31T19:46:55;5;3;
67892;PMS7003;54688;52.376;16.744;2023-10-31T19:49:58;8;5;
67892;PMS7003;54688;52.376;16.744;2023-10-31T19:53:00;1;1;
67892;PMS7003;54688;52.376;16.744;2023-10-31T19:56:04;1;1;
67892;PMS7003;54688;52.376;16.744;2023-10-31T19:59:06;1;1;
67892;PMS7003;54688;52.376;16.744;2023-10-31T20:02:09;0;0;
67892;PMS7003;54688;52.376;16.744;2023-10-31T20:05:12;2;1;
67892;PMS7003;54688;52.376;16.744;2023-10-31T20:08:14;0;0;
67892;PMS7003;54688;52.376;16.744;2023-10-31T20:11:17;4;1;
67892;PMS7003;54688;52.376;16.744;2023-10-31T20:14:19;3;3;
67892;PMS7003;54688;52.376;16.744;2023-10-31T20:17:22;3;2;
67892;PMS7003;54688;52.376;16.744;2023-10-31T20:20:24;3;1;